首页
METAR-TAF:

METAR-TAF

机场 :

哥本哈根凯斯楚普机场

哥本哈根, 丹麦

纬度: 55-37N, 经度: 012-39E, 海拔: 5米

当前天气观测

该预报发布于39分钟前的08:50 UTC
风速16节,风向西
温度 6°C
湿度 81%
气压 1013 hPa
能见度10公里或以上

METAR: EKCH 010850Z AUTO 26016KT 9999 OVC018/// 06/03 Q1013 NOSIG

时间: 11:29 (09:29 UTC)

预报

该预报发布于4小时和29分钟前的05:00 UTC
预报有效从01日的 06点(UTC)到 02日的 06点(UTC)
风速15节,风向西
能见度10公里或以上
多云层高于2000英尺
短暂存在
从 01日的 06点(UTC)到 02日的 03点(UTC)
多云层高于1200英尺
散云层高于2000英尺, 塔状积云.

TAF: EKCH 010500Z 0106/0206 27015KT 9999 BKN020 TEMPO 0106/0203 BKN012 SCT020TCU

超过4000个机场的气象观测和天气预报(METAR&TAF报告)。

可查询的气象台以黄色和红色小点在地图上表示。

将鼠标移到小点上方,可查看气象台名称。

然后点击查看天气观测和预报。

如需切换地图:点击带黑十字的绿色按钮放大地图;点击带横线的绿色按钮缩小地图;或者点击绿色箭头查看邻近地区的地图。


METAR-TAF: